sensor_id;sensor_type;location;lat;lon;timestamp;pressure;altitude;pressure_sealevel;temperature;humidity
55466;BME280;41329;41.594;23.810;2024-02-14T00:02:09;94765.84;;;7.59;59.43
55466;BME280;41329;41.594;23.810;2024-02-14T00:04:34;94757.03;;;7.50;59.31
55466;BME280;41329;41.594;23.810;2024-02-14T00:06:59;94776.63;;;7.45;60.02
55466;BME280;41329;41.594;23.810;2024-02-14T00:09:25;94765.91;;;7.40;60.20
55466;BME280;41329;41.594;23.810;2024-02-14T00:11:51;94775.41;;;7.42;60.57
55466;BME280;41329;41.594;23.810;2024-02-14T00:14:17;94772.00;;;7.30;60.16
55466;BME280;41329;41.594;23.810;2024-02-14T00:16:47;94773.97;;;7.29;60.15
55466;BME280;41329;41.594;23.810;2024-02-14T00:19:12;94759.25;;;7.22;60.41
55466;BME280;41329;41.594;23.810;2024-02-14T00:21:38;94776.34;;;7.31;60.40
55466;BME280;41329;41.594;23.810;2024-02-14T00:24:04;94780.69;;;7.32;60.33
55466;BME280;41329;41.594;23.810;2024-02-14T00:26:30;94775.91;;;7.29;59.98
55466;BME280;41329;41.594;23.810;2024-02-14T00:28:55;94776.22;;;7.24;60.39
55466;BME280;41329;41.594;23.810;2024-02-14T00:31:21;94775.47;;;7.27;60.29
55466;BME280;41329;41.594;23.810;2024-02-14T00:33:46;94777.44;;;7.26;60.28
55466;BME280;41329;41.594;23.810;2024-02-14T00:36:12;94779.03;;;7.27;60.41
55466;BME280;41329;41.594;23.810;2024-02-14T00:38:37;94760.22;;;7.10;60.93
55466;BME280;41329;41.594;23.810;2024-02-14T00:41:03;94777.09;;;7.09;60.57
55466;BME280;41329;41.594;23.810;2024-02-14T00:43:28;94759.22;;;6.99;60.59
55466;BME280;41329;41.594;23.810;2024-02-14T00:45:54;94779.53;;;7.14;60.82
55466;BME280;41329;41.594;23.810;2024-02-14T00:48:22;94787.06;;;7.17;60.87
55466;BME280;41329;41.594;23.810;2024-02-14T00:50:47;94769.06;;;7.00;60.93
55466;BME280;41329;41.594;23.810;2024-02-14T00:53:12;94788.53;;;7.11;61.14
55466;BME280;41329;41.594;23.810;2024-02-14T00:55:39;94760.38;;;6.98;60.96
55466;BME280;41329;41.594;23.810;2024-02-14T00:58:04;94769.56;;;7.06;61.13
55466;BME280;41329;41.594;23.810;2024-02-14T01:00:30;94785.44;;;7.12;61.03
55466;BME280;41329;41.594;23.810;2024-02-14T01:02:57;94785.44;;;7.12;60.57
55466;BME280;41329;41.594;23.810;2024-02-14T01:05:23;94791.72;;;7.13;60.57
55466;BME280;41329;41.594;23.810;2024-02-14T01:07:48;94768.63;;;6.98;60.52
55466;BME280;41329;41.594;23.810;2024-02-14T01:10:14;94760.63;;;6.90;60.57
55466;BME280;41329;41.594;23.810;2024-02-14T01:12:39;94765.75;;;6.91;60.64
55466;BME280;41329;41.594;23.810;2024-02-14T01:15:05;94756.63;;;6.87;60.94
55466;BME280;41329;41.594;23.810;2024-02-14T01:17:31;94789.69;;;6.91;60.93
55466;BME280;41329;41.594;23.810;2024-02-14T01:19:56;94777.88;;;6.90;60.83
55466;BME280;41329;41.594;23.810;2024-02-14T01:22:23;94781.00;;;6.89;60.89
55466;BME280;41329;41.594;23.810;2024-02-14T01:24:49;94788.16;;;6.74;60.90
55466;BME280;41329;41.594;23.810;2024-02-14T01:27:14;94790.53;;;6.76;61.36
55466;BME280;41329;41.594;23.810;2024-02-14T01:29:41;94781.34;;;6.68;61.64
55466;BME280;41329;41.594;23.810;2024-02-14T01:32:06;94784.03;;;6.65;61.83
55466;BME280;41329;41.594;23.810;2024-02-14T01:34:32;94770.84;;;6.54;61.88
55466;BME280;41329;41.594;23.810;2024-02-14T01:36:58;94769.72;;;6.56;62.38
55466;BME280;41329;41.594;23.810;2024-02-14T01:39:23;94781.56;;;6.60;62.31
55466;BME280;41329;41.594;23.810;2024-02-14T01:41:48;94775.56;;;6.54;62.69
55466;BME280;41329;41.594;23.810;2024-02-14T01:44:15;94786.25;;;6.59;62.79
55466;BME280;41329;41.594;23.810;2024-02-14T01:46:42;94760.50;;;6.48;62.79
55466;BME280;41329;41.594;23.810;2024-02-14T01:49:08;94791.94;;;6.66;63.09
55466;BME280;41329;41.594;23.810;2024-02-14T01:51:35;94789.25;;;6.70;63.25
55466;BME280;41329;41.594;23.810;2024-02-14T01:54:02;94764.00;;;6.64;63.05
55466;BME280;41329;41.594;23.810;2024-02-14T01:56:29;94776.72;;;6.72;63.24
55466;BME280;41329;41.594;23.810;2024-02-14T01:58:56;94732.38;;;6.35;63.25
55466;BME280;41329;41.594;23.810;2024-02-14T02:01:22;94787.78;;;6.76;63.25
55466;BME280;41329;41.594;23.810;2024-02-14T02:03:49;94772.03;;;6.73;63.29
55466;BME280;41329;41.594;23.810;2024-02-14T02:06:14;94799.25;;;6.78;62.91
55466;BME280;41329;41.594;23.810;2024-02-14T02:08:43;94798.44;;;6.77;62.63
55466;BME280;41329;41.594;23.810;2024-02-14T02:11:08;94782.41;;;6.63;62.83
55466;BME280;41329;41.594;23.810;2024-02-14T02:13:34;94792.88;;;6.74;62.89
55466;BME280;41329;41.594;23.810;2024-02-14T02:15:59;94797.25;;;6.78;63.14
55466;BME280;41329;41.594;23.810;2024-02-14T02:18:30;94802.06;;;6.81;63.13
55466;BME280;41329;41.594;23.810;2024-02-14T02:20:56;94806.78;;;6.81;63.24
55466;BME280;41329;41.594;23.810;2024-02-14T02:23:21;94807.03;;;6.76;63.15
55466;BME280;41329;41.594;23.810;2024-02-14T02:25:47;94814.22;;;6.80;62.82
55466;BME280;41329;41.594;23.810;2024-02-14T02:28:12;94803.06;;;6.73;62.67
55466;BME280;41329;41.594;23.810;2024-02-14T02:30:38;94801.75;;;6.67;62.93
55466;BME280;41329;41.594;23.810;2024-02-14T02:33:04;94821.66;;;6.80;62.67
55466;BME280;41329;41.594;23.810;2024-02-14T02:35:30;94817.78;;;6.81;62.54
55466;BME280;41329;41.594;23.810;2024-02-14T02:37:55;94820.53;;;6.81;62.46
55466;BME280;41329;41.594;23.810;2024-02-14T02:40:22;94811.00;;;6.78;62.52
55466;BME280;41329;41.594;23.810;2024-02-14T02:42:47;94821.75;;;6.83;62.46
55466;BME280;41329;41.594;23.810;2024-02-14T02:45:13;94821.31;;;6.81;62.58
55466;BME280;41329;41.594;23.810;2024-02-14T02:47:38;94816.44;;;6.75;62.62
55466;BME280;41329;41.594;23.810;2024-02-14T02:50:05;94765.31;;;6.35;62.67
55466;BME280;41329;41.594;23.810;2024-02-14T02:52:31;94827.38;;;6.71;62.62
55466;BME280;41329;41.594;23.810;2024-02-14T02:54:56;94809.78;;;6.57;62.94
55466;BME280;41329;41.594;23.810;2024-02-14T02:57:22;94818.16;;;6.63;63.07
55466;BME280;41329;41.594;23.810;2024-02-14T02:59:48;94821.94;;;6.56;63.66
55466;BME280;41329;41.594;23.810;2024-02-14T03:02:14;94825.44;;;6.56;63.63
55466;BME280;41329;41.594;23.810;2024-02-14T03:04:40;94822.91;;;6.47;63.75
55466;BME280;41329;41.594;23.810;2024-02-14T03:07:07;94796.44;;;6.39;63.89
55466;BME280;41329;41.594;23.810;2024-02-14T03:09:34;94824.16;;;6.50;64.06
55466;BME280;41329;41.594;23.810;2024-02-14T03:12:01;94826.00;;;6.46;64.21
55466;BME280;41329;41.594;23.810;2024-02-14T03:14:29;94832.84;;;6.36;64.40
55466;BME280;41329;41.594;23.810;2024-02-14T03:16:58;94824.44;;;6.45;64.34
55466;BME280;41329;41.594;23.810;2024-02-14T03:19:24;94823.63;;;6.44;64.01
55466;BME280;41329;41.594;23.810;2024-02-14T03:21:52;94796.97;;;6.29;63.79
55466;BME280;41329;41.594;23.810;2024-02-14T03:24:17;94804.66;;;6.39;63.76
55466;BME280;41329;41.594;23.810;2024-02-14T03:26:43;94829.44;;;6.58;63.65
55466;BME280;41329;41.594;23.810;2024-02-14T03:29:08;94831.75;;;6.57;63.85
55466;BME280;41329;41.594;23.810;2024-02-14T03:31:34;94833.78;;;6.60;63.51
55466;BME280;41329;41.594;23.810;2024-02-14T03:33:59;94825.91;;;6.58;63.76
55466;BME280;41329;41.594;23.810;2024-02-14T03:36:25;94837.50;;;6.67;64.05
55466;BME280;41329;41.594;23.810;2024-02-14T03:38:53;94807.38;;;6.55;64.00
55466;BME280;41329;41.594;23.810;2024-02-14T03:41:19;94847.13;;;6.77;63.66
55466;BME280;41329;41.594;23.810;2024-02-14T03:43:44;94845.16;;;6.77;63.96
55466;BME280;41329;41.594;23.810;2024-02-14T03:46:09;94779.94;;;6.39;63.68
55466;BME280;41329;41.594;23.810;2024-02-14T03:48:37;94848.09;;;6.84;63.70
55466;BME280;41329;41.594;23.810;2024-02-14T03:51:03;94845.75;;;6.86;63.52
55466;BME280;41329;41.594;23.810;2024-02-14T03:53:28;94844.97;;;6.86;63.23
55466;BME280;41329;41.594;23.810;2024-02-14T03:55:54;94847.44;;;6.91;63.18
55466;BME280;41329;41.594;23.810;2024-02-14T03:58:19;94850.59;;;6.93;63.01
55466;BME280;41329;41.594;23.810;2024-02-14T04:00:49;94856.56;;;6.95;63.01
55466;BME280;41329;41.594;23.810;2024-02-14T04:03:16;94861.13;;;6.87;62.87
55466;BME280;41329;41.594;23.810;2024-02-14T04:05:41;94865.84;;;6.71;62.97
55466;BME280;41329;41.594;23.810;2024-02-14T04:08:07;94853.06;;;6.79;62.90
55466;BME280;41329;41.594;23.810;2024-02-14T04:10:38;94855.47;;;6.80;62.86
55466;BME280;41329;41.594;23.810;2024-02-14T04:13:04;94867.31;;;6.84;62.85
55466;BME280;41329;41.594;23.810;2024-02-14T04:15:33;94853.34;;;6.74;62.72
55466;BME280;41329;41.594;23.810;2024-02-14T04:17:58;94870.44;;;6.83;62.43
55466;BME280;41329;41.594;23.810;2024-02-14T04:20:25;94870.84;;;6.85;62.55
55466;BME280;41329;41.594;23.810;2024-02-14T04:22:51;94872.13;;;6.87;62.50
55466;BME280;41329;41.594;23.810;2024-02-14T04:25:16;94846.63;;;6.71;62.48
55466;BME280;41329;41.594;23.810;2024-02-14T04:27:42;94871.88;;;6.77;62.13
55466;BME280;41329;41.594;23.810;2024-02-14T04:30:07;94858.53;;;6.60;62.56
55466;BME280;41329;41.594;23.810;2024-02-14T04:32:33;94862.63;;;6.50;63.02
55466;BME280;41329;41.594;23.810;2024-02-14T04:34:58;94883.34;;;6.63;62.95
55466;BME280;41329;41.594;23.810;2024-02-14T04:37:24;94881.75;;;6.62;63.25
55466;BME280;41329;41.594;23.810;2024-02-14T04:39:50;94876.16;;;6.58;63.32
55466;BME280;41329;41.594;23.810;2024-02-14T04:42:15;94890.00;;;6.62;63.60
55466;BME280;41329;41.594;23.810;2024-02-14T04:44:40;94879.63;;;6.56;63.72
55466;BME280;41329;41.594;23.810;2024-02-14T04:47:06;94891.88;;;6.58;63.82
55466;BME280;41329;41.594;23.810;2024-02-14T04:49:31;94899.31;;;6.57;63.97
55466;BME280;41329;41.594;23.810;2024-02-14T04:51:57;94881.41;;;6.48;63.79
55466;BME280;41329;41.594;23.810;2024-02-14T04:54:23;94906.09;;;6.63;63.71
55466;BME280;41329;41.594;23.810;2024-02-14T04:56:48;94904.81;;;6.57;63.70
55466;BME280;41329;41.594;23.810;2024-02-14T04:59:14;94899.31;;;6.57;63.55
55466;BME280;41329;41.594;23.810;2024-02-14T05:01:39;94885.03;;;6.52;63.55
55466;BME280;41329;41.594;23.810;2024-02-14T05:04:08;94912.50;;;6.68;63.61
55466;BME280;41329;41.594;23.810;2024-02-14T05:06:33;94906.56;;;6.66;63.32
55466;BME280;41329;41.594;23.810;2024-02-14T05:08:59;94925.88;;;6.69;63.13
55466;BME280;41329;41.594;23.810;2024-02-14T05:11:24;94925.44;;;6.67;63.33
55466;BME280;41329;41.594;23.810;2024-02-14T05:13:50;94928.19;;;6.67;63.50
55466;BME280;41329;41.594;23.810;2024-02-14T05:16:19;94928.09;;;6.63;63.70
55466;BME280;41329;41.594;23.810;2024-02-14T05:18:44;94937.50;;;6.63;63.87
55466;BME280;41329;41.594;23.810;2024-02-14T05:21:10;94927.59;;;6.58;64.00
55466;BME280;41329;41.594;23.810;2024-02-14T05:23:36;94927.59;;;6.58;64.32
55466;BME280;41329;41.594;23.810;2024-02-14T05:26:02;94923.84;;;6.50;64.21
55466;BME280;41329;41.594;23.810;2024-02-14T05:28:31;94938.75;;;6.65;63.84
55466;BME280;41329;41.594;23.810;2024-02-14T05:30:57;94939.47;;;6.62;63.79
55466;BME280;41329;41.594;23.810;2024-02-14T05:33:22;94952.94;;;6.67;63.67
55466;BME280;41329;41.594;23.810;2024-02-14T05:35:49;94955.69;;;6.67;63.54
55466;BME280;41329;41.594;23.810;2024-02-14T05:38:14;94934.59;;;6.56;64.03
55466;BME280;41329;41.594;23.810;2024-02-14T05:40:40;94953.38;;;6.69;63.89
55466;BME280;41329;41.594;23.810;2024-02-14T05:43:05;94960.03;;;6.68;63.93
55466;BME280;41329;41.594;23.810;2024-02-14T05:45:32;94947.44;;;6.67;63.60
55466;BME280;41329;41.594;23.810;2024-02-14T05:47:58;94947.19;;;6.57;63.52
55466;BME280;41329;41.594;23.810;2024-02-14T05:50:23;94959.06;;;6.61;63.77
55466;BME280;41329;41.594;23.810;2024-02-14T05:52:49;94964.09;;;6.58;63.84
55466;BME280;41329;41.594;23.810;2024-02-14T05:55:14;94939.91;;;6.48;64.30
55466;BME280;41329;41.594;23.810;2024-02-14T05:57:40;94969.06;;;6.53;64.75
55466;BME280;41329;41.594;23.810;2024-02-14T06:00:07;94971.03;;;6.53;64.87
55466;BME280;41329;41.594;23.810;2024-02-14T06:02:34;94967.84;;;6.50;64.99
55466;BME280;41329;41.594;23.810;2024-02-14T06:04:59;94978.31;;;6.61;64.94
55466;BME280;41329;41.594;23.810;2024-02-14T06:07:25;94982.47;;;6.70;65.04
55466;BME280;41329;41.594;23.810;2024-02-14T06:09:50;94981.84;;;6.77;64.84
55466;BME280;41329;41.594;23.810;2024-02-14T06:12:15;94981.47;;;6.78;64.78
55466;BME280;41329;41.594;23.810;2024-02-14T06:14:41;94989.47;;;6.83;64.80
55466;BME280;41329;41.594;23.810;2024-02-14T06:17:06;94976.78;;;6.79;64.66
55466;BME280;41329;41.594;23.810;2024-02-14T06:19:32;95000.34;;;6.95;64.74
55466;BME280;41329;41.594;23.810;2024-02-14T06:21:58;95003.56;;;6.97;64.82
55466;BME280;41329;41.594;23.810;2024-02-14T06:24:24;94982.59;;;6.93;64.69
55466;BME280;41329;41.594;23.810;2024-02-14T06:26:49;94979.97;;;6.96;64.59
55466;BME280;41329;41.594;23.810;2024-02-14T06:29:15;94969.59;;;6.90;64.84
55466;BME280;41329;41.594;23.810;2024-02-14T06:31:40;94980.91;;;7.04;64.80
55466;BME280;41329;41.594;23.810;2024-02-14T06:34:06;94993.84;;;7.19;64.95
55466;BME280;41329;41.594;23.810;2024-02-14T06:36:33;94976.09;;;7.16;64.92
55466;BME280;41329;41.594;23.810;2024-02-14T06:38:58;94982.84;;;7.19;65.02
55466;BME280;41329;41.594;23.810;2024-02-14T06:41:24;94989.72;;;7.28;65.03
55466;BME280;41329;41.594;23.810;2024-02-14T06:43:49;94994.53;;;7.31;64.87
55466;BME280;41329;41.594;23.810;2024-02-14T06:46:15;94950.94;;;6.99;65.13
55466;BME280;41329;41.594;23.810;2024-02-14T06:48:40;95012.34;;;7.37;65.30
55466;BME280;41329;41.594;23.810;2024-02-14T06:51:09;95012.88;;;7.43;65.31
55466;BME280;41329;41.594;23.810;2024-02-14T06:53:34;95010.28;;;7.50;64.96
55466;BME280;41329;41.594;23.810;2024-02-14T06:56:00;95006.81;;;7.53;64.66
55466;BME280;41329;41.594;23.810;2024-02-14T06:58:26;95009.00;;;7.63;64.27
55466;BME280;41329;41.594;23.810;2024-02-14T07:00:51;95007.47;;;7.65;63.83
55466;BME280;41329;41.594;23.810;2024-02-14T07:03:17;95027.06;;;7.79;63.77
55466;BME280;41329;41.594;23.810;2024-02-14T07:05:43;95021.63;;;7.83;63.24
55466;BME280;41329;41.594;23.810;2024-02-14T07:08:08;95029.28;;;7.93;63.25
55466;BME280;41329;41.594;23.810;2024-02-14T07:10:34;95019.09;;;7.93;63.06
55466;BME280;41329;41.594;23.810;2024-02-14T07:12:59;95013.94;;;7.92;62.76
55466;BME280;41329;41.594;23.810;2024-02-14T07:15:25;95020.03;;;8.01;62.04
55466;BME280;41329;41.594;23.810;2024-02-14T07:17:54;95041.50;;;8.11;62.07
55466;BME280;41329;41.594;23.810;2024-02-14T07:20:20;95045.19;;;8.18;61.44
55466;BME280;41329;41.594;23.810;2024-02-14T07:22:46;95044.50;;;8.21;61.30
55466;BME280;41329;41.594;23.810;2024-02-14T07:25:13;95015.75;;;8.03;61.25
55466;BME280;41329;41.594;23.810;2024-02-14T07:27:39;95043.75;;;8.24;61.42
55466;BME280;41329;41.594;23.810;2024-02-14T07:30:05;95042.66;;;8.29;61.57
55466;BME280;41329;41.594;23.810;2024-02-14T07:32:30;95046.66;;;8.31;61.44
55466;BME280;41329;41.594;23.810;2024-02-14T07:34:56;95055.84;;;8.39;61.57
55466;BME280;41329;41.594;23.810;2024-02-14T07:37:21;95059.13;;;8.44;61.74
55466;BME280;41329;41.594;23.810;2024-02-14T07:39:47;95062.22;;;8.43;61.69
55466;BME280;41329;41.594;23.810;2024-02-14T07:42:13;95064.69;;;8.48;61.39
55466;BME280;41329;41.594;23.810;2024-02-14T07:44:39;95062.44;;;8.53;61.23
55466;BME280;41329;41.594;23.810;2024-02-14T07:47:04;95066.50;;;8.59;61.49
55466;BME280;41329;41.594;23.810;2024-02-14T07:49:30;95064.47;;;8.56;61.32
55466;BME280;41329;41.594;23.810;2024-02-14T07:51:55;95068.09;;;8.60;61.20
55466;BME280;41329;41.594;23.810;2024-02-14T07:54:21;95067.78;;;8.65;61.15
55466;BME280;41329;41.594;23.810;2024-02-14T07:56:47;95055.13;;;8.42;60.81
55466;BME280;41329;41.594;23.810;2024-02-14T07:59:12;95069.72;;;8.42;60.51
55466;BME280;41329;41.594;23.810;2024-02-14T08:01:37;95079.50;;;8.40;60.60
55466;BME280;41329;41.594;23.810;2024-02-14T08:04:03;95078.84;;;8.46;60.45
55466;BME280;41329;41.594;23.810;2024-02-14T08:06:29;95081.38;;;8.55;60.55
55466;BME280;41329;41.594;23.810;2024-02-14T08:08:55;95082.47;;;8.50;61.12
55466;BME280;41329;41.594;23.810;2024-02-14T08:11:24;95076.06;;;8.46;61.16
55466;BME280;41329;41.594;23.810;2024-02-14T08:13:50;95091.53;;;8.70;61.51
55466;BME280;41329;41.594;23.810;2024-02-14T08:16:15;95069.00;;;8.68;61.34
55466;BME280;41329;41.594;23.810;2024-02-14T08:18:41;95093.22;;;8.78;61.70
55466;BME280;41329;41.594;23.810;2024-02-14T08:21:09;95088.78;;;8.70;61.50
55466;BME280;41329;41.594;23.810;2024-02-14T08:23:35;95035.16;;;8.48;61.13
55466;BME280;41329;41.594;23.810;2024-02-14T08:26:01;95103.81;;;8.95;61.27
55466;BME280;41329;41.594;23.810;2024-02-14T08:28:26;95090.94;;;9.02;61.27
55466;BME280;41329;41.594;23.810;2024-02-14T08:30:52;95086.25;;;8.84;60.30
55466;BME280;41329;41.594;23.810;2024-02-14T08:33:17;95098.50;;;9.05;60.44
55466;BME280;41329;41.594;23.810;2024-02-14T08:35:43;95079.25;;;8.90;59.97
55466;BME280;41329;41.594;23.810;2024-02-14T08:38:08;95101.97;;;9.02;59.20
55466;BME280;41329;41.594;23.810;2024-02-14T08:40:34;95094.56;;;9.06;59.02
55466;BME280;41329;41.594;23.810;2024-02-14T08:42:59;95094.69;;;8.91;59.18
55466;BME280;41329;41.594;23.810;2024-02-14T08:45:26;95112.16;;;8.98;59.51
55466;BME280;41329;41.594;23.810;2024-02-14T08:47:54;95086.69;;;8.86;58.67
55466;BME280;41329;41.594;23.810;2024-02-14T08:50:20;95101.28;;;8.86;58.67
55466;BME280;41329;41.594;23.810;2024-02-14T08:52:45;95108.09;;;8.92;58.53
55466;BME280;41329;41.594;23.810;2024-02-14T08:55:11;95064.16;;;8.61;58.36
55466;BME280;41329;41.594;23.810;2024-02-14T08:57:41;95114.97;;;9.02;57.94
55466;BME280;41329;41.594;23.810;2024-02-14T09:00:08;95108.03;;;9.11;58.39
55466;BME280;41329;41.594;23.810;2024-02-14T09:02:33;95113.31;;;9.20;57.92
55466;BME280;41329;41.594;23.810;2024-02-14T09:05:00;95115.50;;;9.11;57.40
55466;BME280;41329;41.594;23.810;2024-02-14T09:07:26;95101.66;;;9.07;57.72
55466;BME280;41329;41.594;23.810;2024-02-14T09:09:52;95118.34;;;9.14;57.14
55466;BME280;41329;41.594;23.810;2024-02-14T09:12:17;95089.91;;;9.10;57.48
55466;BME280;41329;41.594;23.810;2024-02-14T09:14:42;95112.72;;;9.30;57.21
55466;BME280;41329;41.594;23.810;2024-02-14T09:17:08;95104.66;;;9.21;57.42
55466;BME280;41329;41.594;23.810;2024-02-14T09:19:35;95121.91;;;9.37;56.78
55466;BME280;41329;41.594;23.810;2024-02-14T09:22:00;95122.88;;;9.48;57.17
55466;BME280;41329;41.594;23.810;2024-02-14T09:24:25;95113.00;;;9.47;57.04
55466;BME280;41329;41.594;23.810;2024-02-14T09:26:51;95118.25;;;9.56;56.47
55466;BME280;41329;41.594;23.810;2024-02-14T09:29:16;95117.09;;;9.57;55.79
55466;BME280;41329;41.594;23.810;2024-02-14T09:31:42;95093.13;;;9.38;56.00
55466;BME280;41329;41.594;23.810;2024-02-14T09:34:07;95116.22;;;9.53;56.22
55466;BME280;41329;41.594;23.810;2024-02-14T09:36:33;95105.31;;;9.60;56.61
55466;BME280;41329;41.594;23.810;2024-02-14T09:38:58;95108.94;;;9.64;55.67
55466;BME280;41329;41.594;23.810;2024-02-14T09:41:49;95105.13;;;9.72;55.89
55466;BME280;41329;41.594;23.810;2024-02-14T09:44:12;95103.81;;;9.66;55.92
55466;BME280;41329;41.594;23.810;2024-02-14T09:46:38;95110.09;;;9.63;55.55
55466;BME280;41329;41.594;23.810;2024-02-14T09:49:04;95111.31;;;9.65;55.99
55466;BME280;41329;41.594;23.810;2024-02-14T09:51:31;95090.97;;;9.51;55.76
55466;BME280;41329;41.594;23.810;2024-02-14T09:53:59;95098.94;;;9.56;55.54
55466;BME280;41329;41.594;23.810;2024-02-14T09:56:25;95085.56;;;9.58;55.52
55466;BME280;41329;41.594;23.810;2024-02-14T09:58:53;95108.78;;;9.79;55.72
55466;BME280;41329;41.594;23.810;2024-02-14T10:01:24;95108.56;;;9.91;55.65
55466;BME280;41329;41.594;23.810;2024-02-14T10:03:51;95098.53;;;9.80;55.16
55466;BME280;41329;41.594;23.810;2024-02-14T10:06:19;95104.56;;;9.89;55.37
55466;BME280;41329;41.594;23.810;2024-02-14T10:08:49;95106.19;;;9.93;54.84
55466;BME280;41329;41.594;23.810;2024-02-14T10:11:15;95103.00;;;9.88;55.38
55466;BME280;41329;41.594;23.810;2024-02-14T10:13:41;95090.03;;;9.92;55.17
55466;BME280;41329;41.594;23.810;2024-02-14T10:16:10;95099.34;;;10.06;55.44
55466;BME280;41329;41.594;23.810;2024-02-14T10:18:38;95071.97;;;10.01;55.10
55466;BME280;41329;41.594;23.810;2024-02-14T10:21:04;95107.84;;;10.24;54.97
55466;BME280;41329;41.594;23.810;2024-02-14T10:23:29;95106.59;;;10.18;54.00
55466;BME280;41329;41.594;23.810;2024-02-14T10:25:57;95087.16;;;10.11;54.09
55466;BME280;41329;41.594;23.810;2024-02-14T10:28:22;95098.06;;;10.30;54.69
55466;BME280;41329;41.594;23.810;2024-02-14T10:30:49;95075.50;;;10.24;53.84
55466;BME280;41329;41.594;23.810;2024-02-14T10:33:17;95072.03;;;10.34;53.00
55466;BME280;41329;41.594;23.810;2024-02-14T10:35:44;95088.03;;;10.48;53.33
55466;BME280;41329;41.594;23.810;2024-02-14T10:38:11;95088.84;;;10.48;52.40
55466;BME280;41329;41.594;23.810;2024-02-14T10:40:37;95074.03;;;10.34;52.33
55466;BME280;41329;41.594;23.810;2024-02-14T10:43:09;95066.94;;;10.36;52.89
55466;BME280;41329;41.594;23.810;2024-02-14T10:45:37;95073.00;;;10.49;52.96
55466;BME280;41329;41.594;23.810;2024-02-14T10:48:06;95077.09;;;10.58;52.68
55466;BME280;41329;41.594;23.810;2024-02-14T10:50:36;95013.19;;;10.04;52.12
55466;BME280;41329;41.594;23.810;2024-02-14T10:53:04;95069.97;;;10.24;53.08
55466;BME280;41329;41.594;23.810;2024-02-14T10:55:33;95078.19;;;10.50;53.34
55466;BME280;41329;41.594;23.810;2024-02-14T10:57:59;95089.34;;;10.57;53.49
55466;BME280;41329;41.594;23.810;2024-02-14T11:00:25;95066.38;;;10.53;53.61
55466;BME280;41329;41.594;23.810;2024-02-14T11:02:52;95085.88;;;10.67;52.96
55466;BME280;41329;41.594;23.810;2024-02-14T11:05:19;95084.38;;;10.73;52.46
55466;BME280;41329;41.594;23.810;2024-02-14T11:07:49;95078.78;;;10.70;52.54
55466;BME280;41329;41.594;23.810;2024-02-14T11:10:18;95084.75;;;10.72;52.61
55466;BME280;41329;41.594;23.810;2024-02-14T11:12:46;95086.38;;;10.76;52.22
55466;BME280;41329;41.594;23.810;2024-02-14T11:15:22;95072.03;;;10.67;52.05
55466;BME280;41329;41.594;23.810;2024-02-14T11:17:49;95075.66;;;10.71;51.98
55466;BME280;41329;41.594;23.810;2024-02-14T11:20:19;95073.72;;;10.75;51.46
55466;BME280;41329;41.594;23.810;2024-02-14T11:23:11;95094.75;;;10.83;51.96
55466;BME280;41329;41.594;23.810;2024-02-14T11:25:37;95073.72;;;10.75;51.59
55466;BME280;41329;41.594;23.810;2024-02-14T11:28:13;95082.47;;;10.77;51.66
55466;BME280;41329;41.594;23.810;2024-02-14T11:30:40;95086.72;;;10.71;51.47
55466;BME280;41329;41.594;23.810;2024-02-14T11:33:26;95092.28;;;10.75;51.79
55466;BME280;41329;41.594;23.810;2024-02-14T11:35:54;95089.09;;;10.69;52.24
55466;BME280;41329;41.594;23.810;2024-02-14T11:38:21;95095.47;;;10.73;51.81
55466;BME280;41329;41.594;23.810;2024-02-14T11:40:47;95078.03;;;10.73;51.78
55466;BME280;41329;41.594;23.810;2024-02-14T11:43:15;95098.00;;;10.89;52.06
55466;BME280;41329;41.594;23.810;2024-02-14T11:45:42;95088.16;;;10.95;51.85
55466;BME280;41329;41.594;23.810;2024-02-14T11:48:09;95072.31;;;10.92;50.63
55466;BME280;41329;41.594;23.810;2024-02-14T11:50:36;95084.72;;;11.05;51.34
55466;BME280;41329;41.594;23.810;2024-02-14T11:53:01;95069.16;;;10.93;51.26
55466;BME280;41329;41.594;23.810;2024-02-14T11:55:30;95081.91;;;11.01;50.88
55466;BME280;41329;41.594;23.810;2024-02-14T11:57:57;95089.03;;;11.02;50.52
55466;BME280;41329;41.594;23.810;2024-02-14T12:00:23;95058.91;;;10.94;50.74
55466;BME280;41329;41.594;23.810;2024-02-14T12:02:50;95064.56;;;11.08;50.13
55466;BME280;41329;41.594;23.810;2024-02-14T12:05:17;95079.38;;;11.26;49.84
55466;BME280;41329;41.594;23.810;2024-02-14T12:07:43;95068.72;;;11.28;50.90
55466;BME280;41329;41.594;23.810;2024-02-14T12:10:09;95023.03;;;11.08;49.38
55466;BME280;41329;41.594;23.810;2024-02-14T12:12:34;95085.94;;;11.51;49.86
55466;BME280;41329;41.594;23.810;2024-02-14T12:15:02;95084.22;;;11.36;49.12
55466;BME280;41329;41.594;23.810;2024-02-14T12:17:28;95080.69;;;11.39;49.72
55466;BME280;41329;41.594;23.810;2024-02-14T12:20:08;95072.03;;;11.47;49.98
55466;BME280;41329;41.594;23.810;2024-02-14T12:22:34;95073.34;;;11.60;49.91
55466;BME280;41329;41.594;23.810;2024-02-14T12:25:00;95058.38;;;11.68;49.38
55466;BME280;41329;41.594;23.810;2024-02-14T12:27:26;95054.84;;;11.71;49.18
55466;BME280;41329;41.594;23.810;2024-02-14T12:29:51;95083.53;;;12.00;49.33
55466;BME280;41329;41.594;23.810;2024-02-14T12:32:17;95071.69;;;12.06;49.21
55466;BME280;41329;41.594;23.810;2024-02-14T12:34:44;95077.31;;;12.17;47.93
55466;BME280;41329;41.594;23.810;2024-02-14T12:37:09;95068.59;;;12.22;48.70
55466;BME280;41329;41.594;23.810;2024-02-14T12:39:36;95075.81;;;12.37;48.37
55466;BME280;41329;41.594;23.810;2024-02-14T12:42:03;95071.91;;;12.45;48.04
55466;BME280;41329;41.594;23.810;2024-02-14T12:44:29;95081.81;;;12.46;47.11
55466;BME280;41329;41.594;23.810;2024-02-14T12:46:54;95073.88;;;12.44;46.37
55466;BME280;41329;41.594;23.810;2024-02-14T12:49:20;95075.06;;;12.40;47.08
55466;BME280;41329;41.594;23.810;2024-02-14T12:51:45;95075.88;;;12.44;46.00
55466;BME280;41329;41.594;23.810;2024-02-14T12:54:11;95081.81;;;12.46;46.27